createdAt,value
2019-02-23T00:00:44.659Z,19.00
2019-02-23T00:03:15.755Z,18.43
2019-02-23T00:05:45.187Z,16.87
2019-02-23T00:08:14.506Z,20.00
2019-02-23T00:10:43.830Z,23.40
2019-02-23T00:13:13.127Z,18.50
2019-02-23T00:15:42.437Z,17.37
2019-02-23T00:18:12.683Z,20.03
2019-02-23T00:20:42.234Z,18.47
2019-02-23T00:23:11.533Z,20.00
2019-02-23T00:25:40.854Z,20.40
2019-02-23T00:28:10.164Z,20.20
2019-02-23T00:30:39.514Z,22.20
2019-02-23T00:33:08.830Z,23.03
2019-02-23T00:35:38.137Z,19.30
2019-02-23T00:38:07.458Z,19.60
2019-02-23T00:40:36.762Z,16.90
2019-02-23T00:43:06.049Z,21.20
2019-02-23T00:45:35.365Z,17.93
2019-02-23T00:48:04.679Z,18.77
2019-02-23T00:50:34.130Z,20.87
2019-02-23T00:53:03.446Z,21.87
2019-02-23T00:55:32.797Z,18.30
2019-02-23T00:58:02.113Z,20.53
2019-02-23T01:00:31.514Z,21.03
2019-02-23T01:03:00.822Z,17.30
2019-02-23T01:05:30.175Z,18.30
2019-02-23T01:07:59.535Z,19.90
2019-02-23T01:10:29.003Z,22.00
2019-02-23T01:12:58.315Z,17.47
2019-02-23T01:15:27.622Z,21.63
2019-02-23T01:17:57.045Z,19.73
2019-02-23T01:20:26.363Z,19.83
2019-02-23T01:22:55.687Z,20.60
2019-02-23T01:25:25.178Z,20.10
2019-02-23T01:27:54.503Z,20.97
2019-02-23T01:30:23.808Z,18.33
2019-02-23T01:32:53.126Z,21.37
2019-02-23T01:35:22.498Z,20.33
2019-02-23T01:37:51.934Z,19.70
2019-02-23T01:40:21.234Z,22.83
2019-02-23T01:42:50.624Z,21.93
2019-02-23T01:45:19.926Z,22.07
2019-02-23T01:47:49.226Z,21.13
2019-02-23T01:50:18.553Z,20.33
2019-02-23T01:52:47.925Z,20.03
2019-02-23T01:55:17.273Z,19.27
2019-02-23T01:57:47.179Z,19.60
2019-02-23T02:00:17.703Z,20.17
2019-02-23T02:02:48.374Z,18.73
2019-02-23T02:05:17.768Z,18.27
2019-02-23T02:07:47.078Z,20.83
2019-02-23T02:10:16.823Z,21.87
2019-02-23T02:12:46.122Z,22.07
2019-02-23T02:15:16.088Z,20.33
2019-02-23T02:17:45.418Z,17.87
2019-02-23T02:20:14.919Z,19.30
2019-02-23T02:22:44.227Z,21.70
2019-02-23T02:25:13.598Z,22.83
2019-02-23T02:27:42.914Z,23.50
2019-02-23T02:30:12.521Z,20.57
2019-02-23T02:32:41.875Z,19.50
2019-02-23T02:35:11.839Z,18.30
2019-02-23T02:37:41.137Z,21.30
2019-02-23T02:40:10.533Z,20.00
2019-02-23T02:42:39.858Z,20.53
2019-02-23T02:45:10.821Z,20.90
2019-02-23T02:47:40.102Z,23.13
2019-02-23T02:50:23.372Z,20.73
2019-02-23T02:52:41.348Z,23.17
2019-02-23T02:55:10.747Z,20.13
2019-02-23T02:57:40.035Z,22.10
2019-02-23T03:00:11.805Z,21.17
2019-02-23T03:02:41.166Z,20.50
2019-02-23T03:05:10.951Z,20.57
2019-02-23T03:07:41.243Z,24.43
2019-02-23T03:10:10.567Z,22.57
2019-02-23T03:12:39.915Z,19.47
2019-02-23T03:15:09.227Z,21.07
2019-02-23T03:17:38.534Z,23.37
2019-02-23T03:20:08.786Z,21.27
2019-02-23T03:22:38.298Z,22.43
2019-02-23T03:25:08.208Z,22.73
2019-02-23T03:27:37.515Z,24.00
2019-02-23T03:30:09.633Z,21.40
2019-02-23T03:32:38.998Z,22.07
2019-02-23T03:35:08.303Z,21.90
2019-02-23T03:37:37.684Z,23.97
2019-02-23T03:40:08.508Z,21.83
2019-02-23T03:45:34.255Z,21.80
2019-02-23T03:48:03.604Z,22.60
2019-02-23T03:50:32.891Z,23.37
2019-02-23T03:53:02.207Z,23.43
2019-02-23T03:55:31.502Z,25.87
2019-02-23T03:58:00.827Z,22.10
2019-02-23T04:00:30.129Z,22.23
2019-02-23T04:02:59.499Z,22.53
2019-02-23T04:05:28.812Z,21.40
2019-02-23T04:07:58.134Z,21.67
2019-02-23T04:10:27.450Z,24.90
2019-02-23T04:12:58.682Z,25.27
2019-02-23T04:15:28.005Z,24.13
2019-02-23T04:17:57.331Z,25.90
2019-02-23T04:20:26.680Z,23.00
2019-02-23T04:22:56.020Z,21.03
2019-02-23T04:25:25.315Z,22.03
2019-02-23T04:27:54.635Z,24.33
2019-02-23T04:30:23.934Z,25.23
2019-02-23T04:32:53.255Z,23.73
2019-02-23T04:35:22.550Z,25.10
2019-02-23T04:37:52.218Z,25.43
2019-02-23T04:40:21.527Z,26.13
2019-02-23T04:42:50.831Z,24.10
2019-02-23T04:45:20.148Z,22.43
2019-02-23T04:47:49.462Z,25.47
2019-02-23T04:50:18.755Z,26.33
2019-02-23T04:52:48.074Z,24.77
2019-02-23T04:55:17.398Z,23.17
2019-02-23T04:57:46.718Z,22.77
2019-02-23T05:00:16.091Z,25.47
2019-02-23T05:02:45.412Z,23.30
2019-02-23T05:05:14.786Z,25.07
2019-02-23T05:07:44.089Z,26.30
2019-02-23T05:10:13.425Z,24.13
2019-02-23T05:12:42.794Z,25.00
2019-02-23T05:15:12.107Z,24.67
2019-02-23T05:17:41.425Z,22.93
2019-02-23T05:20:10.824Z,24.70
2019-02-23T05:22:41.190Z,25.63
2019-02-23T05:25:10.495Z,23.90
2019-02-23T05:27:39.796Z,24.13
2019-02-23T05:30:11.662Z,23.33
2019-02-23T05:32:40.989Z,26.73
2019-02-23T05:35:12.050Z,25.33
2019-02-23T05:37:41.351Z,23.93
2019-02-23T05:40:12.117Z,26.77
2019-02-23T05:42:41.422Z,26.47
2019-02-23T05:45:11.415Z,26.30
2019-02-23T05:47:40.751Z,24.50
2019-02-23T05:50:10.362Z,26.27
2019-02-23T05:52:39.891Z,25.97
2019-02-23T05:55:09.523Z,27.27
2019-02-23T05:57:39.129Z,27.07
2019-02-23T06:00:12.349Z,26.27
2019-02-23T06:02:44.786Z,26.10
2019-02-23T06:05:13.307Z,28.13
2019-02-23T06:07:42.650Z,26.63
2019-02-23T06:10:12.043Z,34.37
2019-02-23T06:12:41.355Z,45.33
2019-02-23T06:15:12.655Z,38.90
2019-02-23T06:17:41.963Z,29.03
2019-02-23T06:20:11.293Z,29.27
2019-02-23T06:22:41.615Z,27.37
2019-02-23T06:25:10.948Z,27.43
2019-02-23T06:27:40.243Z,26.27
2019-02-23T06:30:13.402Z,29.47
2019-02-23T06:32:42.723Z,30.53
2019-02-23T06:35:13.419Z,29.40
2019-02-23T06:37:42.975Z,31.17
2019-02-23T06:40:12.641Z,27.40
2019-02-23T06:42:42.111Z,26.00
2019-02-23T06:45:12.719Z,26.33
2019-02-23T06:47:42.142Z,28.67
2019-02-23T06:50:12.196Z,28.87
2019-02-23T06:52:41.958Z,31.57
2019-02-23T06:55:11.425Z,29.07
2019-02-23T06:57:40.819Z,28.57
2019-02-23T07:00:15.212Z,30.13
2019-02-23T07:02:44.602Z,29.23
2019-02-23T07:05:13.971Z,29.53
2019-02-23T07:07:43.301Z,29.17
2019-02-23T07:10:13.637Z,26.23
2019-02-23T07:12:43.940Z,30.50
2019-02-23T07:15:14.342Z,29.90
2019-02-23T07:17:43.658Z,29.60
2019-02-23T07:20:13.044Z,25.83
2019-02-23T07:22:42.368Z,24.60
2019-02-23T07:25:11.702Z,26.80
2019-02-23T07:27:41.054Z,26.27
2019-02-23T07:30:14.203Z,27.23
2019-02-23T07:32:43.526Z,25.00
2019-02-23T07:35:12.897Z,27.80
2019-02-23T07:37:42.271Z,26.43
2019-02-23T07:40:13.582Z,40.43
2019-02-23T07:42:42.933Z,27.27
2019-02-23T07:45:12.422Z,27.73
2019-02-23T07:47:41.744Z,26.97
2019-02-23T07:50:13.838Z,33.50
2019-02-23T07:52:43.245Z,39.37
2019-02-23T07:55:12.541Z,42.43
2019-02-23T07:57:41.939Z,34.03
2019-02-23T08:00:16.894Z,43.23
2019-02-23T08:02:46.496Z,40.03
2019-02-23T08:05:15.850Z,35.97
2019-02-23T08:07:45.223Z,33.80
2019-02-23T08:10:14.811Z,31.53
2019-02-23T08:12:44.218Z,29.30
2019-02-23T08:15:13.570Z,23.30
2019-02-23T08:17:42.930Z,25.90
2019-02-23T08:20:13.397Z,27.07
2019-02-23T08:22:42.933Z,29.73
2019-02-23T08:25:14.567Z,33.03
2019-02-23T08:27:43.888Z,35.27
2019-02-23T08:30:15.049Z,32.27
2019-02-23T08:32:44.358Z,32.13
2019-02-23T08:35:13.679Z,34.17
2019-02-23T08:37:42.966Z,27.13
2019-02-23T08:40:14.321Z,26.87
2019-02-23T08:42:43.631Z,26.97
2019-02-23T08:45:12.956Z,24.80
2019-02-23T08:47:42.274Z,27.23
2019-02-23T08:50:15.568Z,23.03
2019-02-23T08:52:48.984Z,45.63
2019-02-23T08:55:15.903Z,23.77
2019-02-23T08:57:45.211Z,30.80
2019-02-23T09:00:16.619Z,22.57
2019-02-23T09:02:45.998Z,27.03
2019-02-23T09:05:15.505Z,30.47
2019-02-23T09:07:44.799Z,39.97
2019-02-23T09:10:14.840Z,45.73
2019-02-23T09:12:44.126Z,48.63
2019-02-23T09:15:13.583Z,53.37
2019-02-23T09:17:43.104Z,81.43
2019-02-23T09:20:13.011Z,42.33
2019-02-23T09:22:43.589Z,30.03
2019-02-23T09:25:13.098Z,37.10
2019-02-23T09:27:42.383Z,50.13
2019-02-23T09:30:13.396Z,66.77
2019-02-23T09:32:42.884Z,47.10
2019-02-23T09:35:12.197Z,45.13
2019-02-23T09:37:41.505Z,42.40
2019-02-23T09:40:16.994Z,26.57
2019-02-23T09:42:46.479Z,40.10
2019-02-23T09:45:15.880Z,34.47
2019-02-23T09:47:45.186Z,40.30
2019-02-23T09:50:14.503Z,29.83
2019-02-23T09:52:43.833Z,23.63
2019-02-23T09:55:13.415Z,23.00
2019-02-23T09:57:42.762Z,21.03
2019-02-23T10:00:13.315Z,22.50
2019-02-23T10:02:43.617Z,18.93
2019-02-23T10:05:13.055Z,20.00
2019-02-23T10:07:42.376Z,21.90
2019-02-23T10:10:12.138Z,18.07
2019-02-23T10:12:41.696Z,19.93
2019-02-23T10:15:11.639Z,18.90
2019-02-23T10:17:41.050Z,18.50
2019-02-23T10:20:12.769Z,16.33
2019-02-23T10:22:42.116Z,16.10
2019-02-23T10:25:11.619Z,15.17
2019-02-23T10:27:40.923Z,14.60
2019-02-23T10:30:14.678Z,13.00
2019-02-23T10:32:44.071Z,14.80
2019-02-23T10:35:14.260Z,15.00
2019-02-23T10:37:43.609Z,11.70
2019-02-23T10:40:12.780Z,16.15
2019-02-23T10:42:42.103Z,12.17
2019-02-23T10:45:12.756Z,14.63
2019-02-23T10:47:42.067Z,17.77
2019-02-23T10:50:12.893Z,9.93
2019-02-23T10:52:42.335Z,12.63
2019-02-23T10:55:13.003Z,10.37
2019-02-23T10:57:42.470Z,12.73
2019-02-23T11:00:16.092Z,11.60
2019-02-23T11:02:45.492Z,10.97
2019-02-23T11:05:15.268Z,11.73
2019-02-23T11:07:44.605Z,10.60
2019-02-23T11:10:14.855Z,10.27
2019-02-23T11:12:44.194Z,10.57
2019-02-23T11:15:15.389Z,10.70
2019-02-23T11:17:45.786Z,10.70
2019-02-23T11:20:16.434Z,11.73
2019-02-23T11:22:47.028Z,10.83
2019-02-23T11:25:16.363Z,10.07
2019-02-23T11:27:45.765Z,10.33
2019-02-23T11:30:16.225Z,9.47
2019-02-23T11:32:45.530Z,9.37
2019-02-23T11:35:17.258Z,10.57
2019-02-23T11:37:46.214Z,9.57
2019-02-23T11:40:16.470Z,9.63
2019-02-23T11:42:45.795Z,9.93
2019-02-23T11:45:15.106Z,9.93
2019-02-23T11:47:44.491Z,10.80
2019-02-23T11:50:14.276Z,9.90
2019-02-23T11:52:43.598Z,9.70
2019-02-23T11:55:13.126Z,8.50
2019-02-23T11:57:42.434Z,9.57
2019-02-23T12:00:16.057Z,9.63
2019-02-23T12:02:52.410Z,17.90
2019-02-23T12:05:16.591Z,34.77
2019-02-23T12:07:46.060Z,12.83
2019-02-23T12:10:16.219Z,10.27
2019-02-23T12:12:45.784Z,10.67
2019-02-23T12:15:15.157Z,9.73
2019-02-23T12:17:44.467Z,9.93
2019-02-23T12:20:13.790Z,13.90
2019-02-23T12:22:43.108Z,13.90
2019-02-23T12:25:15.726Z,11.70
2019-02-23T12:27:43.733Z,8.90
2019-02-23T12:30:13.319Z,8.93
2019-02-23T12:32:42.632Z,8.37
2019-02-23T12:35:12.674Z,9.10
2019-02-23T12:37:42.075Z,13.17
2019-02-23T12:40:11.618Z,9.33
2019-02-23T12:42:40.994Z,7.43
2019-02-23T12:45:13.893Z,7.87
2019-02-23T12:47:43.218Z,9.13
2019-02-23T12:50:13.378Z,7.80
2019-02-23T12:52:42.763Z,10.60
2019-02-23T12:55:12.339Z,7.47
2019-02-23T12:57:42.706Z,7.40
2019-02-23T13:00:17.187Z,7.30
2019-02-23T13:02:46.626Z,7.83
2019-02-23T13:05:15.949Z,7.13
2019-02-23T13:07:45.268Z,7.57
2019-02-23T13:10:14.572Z,7.37
2019-02-23T13:12:53.142Z,6.43
2019-02-23T13:15:34.572Z,6.47
2019-02-23T13:18:23.084Z,6.73
2019-02-23T13:20:58.284Z,7.07
2019-02-23T13:23:39.592Z,6.07
2019-02-23T13:26:31.570Z,9.07
2019-02-23T13:29:03.951Z,5.67
2019-02-23T13:31:36.329Z,6.30
2019-02-23T13:34:35.467Z,5.47
2019-02-23T13:37:34.931Z,6.10
2019-02-23T13:40:25.168Z,6.67
2019-02-23T13:43:20.292Z,6.30
2019-02-23T13:46:01.935Z,5.33
2019-02-23T13:48:50.622Z,8.93
2019-02-23T13:52:05.999Z,7.77
2019-02-23T13:54:47.175Z,14.70
2019-02-23T13:57:19.582Z,7.27
2019-02-23T13:59:57.938Z,6.13
2019-02-23T14:02:53.210Z,9.40
2019-02-23T14:06:01.547Z,9.23
2019-02-23T14:09:07.947Z,20.87
2019-02-23T14:11:56.855Z,9.83
2019-02-23T14:14:41.026Z,5.53
2019-02-23T14:17:15.947Z,10.23
2019-02-23T14:20:06.547Z,9.67
2019-02-23T14:22:58.291Z,8.40
2019-02-23T14:25:57.056Z,10.57
2019-02-23T14:28:50.554Z,15.07
2019-02-23T14:31:25.631Z,13.93
2019-02-23T14:34:00.560Z,14.57
2019-02-23T14:36:50.906Z,7.60
2019-02-23T14:39:52.072Z,6.97
2019-02-23T14:42:42.772Z,9.17
2019-02-23T14:45:17.888Z,7.53
2019-02-23T14:48:02.574Z,8.00
2019-02-23T14:50:52.894Z,6.60
2019-02-23T14:53:31.143Z,5.40
2019-02-23T14:56:15.817Z,9.30
2019-02-23T14:59:11.180Z,7.20
2019-02-23T15:01:48.855Z,7.73
2019-02-23T15:04:53.070Z,7.50
2019-02-23T15:07:34.558Z,9.10
2019-02-23T15:10:29.702Z,6.73
2019-02-23T15:13:03.062Z,11.43
2019-02-23T15:16:01.914Z,6.37
2019-02-23T15:19:08.332Z,7.47
2019-02-23T15:22:01.525Z,7.37
2019-02-23T15:24:50.416Z,7.10
2019-02-23T15:27:28.839Z,7.53
2019-02-23T15:30:16.023Z,16.00
2019-02-23T15:32:57.247Z,13.13
2019-02-23T15:35:47.609Z,13.13
2019-02-23T15:38:44.217Z,6.60
2019-02-23T15:41:25.509Z,8.10
2019-02-23T15:44:03.507Z,10.13
2019-02-23T15:46:35.999Z,9.30
2019-02-23T15:49:27.571Z,7.93
2019-02-23T15:51:57.132Z,8.57
2019-02-23T15:54:29.131Z,10.90
2019-02-23T15:56:57.482Z,7.93
2019-02-23T15:59:26.837Z,9.00
2019-02-23T16:01:56.170Z,10.73
2019-02-23T16:04:25.571Z,146.07
2019-02-23T16:06:55.058Z,27.33
2019-02-23T16:09:24.462Z,7.20
2019-02-23T16:11:53.763Z,6.70
2019-02-23T16:14:23.154Z,7.53
2019-02-23T16:16:52.474Z,7.20
2019-02-23T16:19:21.806Z,9.80
2019-02-23T16:21:52.954Z,17.87
2019-02-23T16:24:22.200Z,13.17
2019-02-23T16:26:51.559Z,8.20
2019-02-23T16:29:20.916Z,7.30
2019-02-23T16:31:50.216Z,10.43
2019-02-23T16:34:19.547Z,9.30
2019-02-23T16:36:48.843Z,9.60
2019-02-23T16:39:18.148Z,7.73
2019-02-23T16:41:47.474Z,10.70
2019-02-23T16:44:16.847Z,6.40
2019-02-23T16:46:46.492Z,7.93
2019-02-23T16:49:16.138Z,8.77
2019-02-23T16:51:45.778Z,7.80
2019-02-23T16:54:16.094Z,7.97
2019-02-23T16:56:45.422Z,22.13
2019-02-23T16:59:14.721Z,9.70
2019-02-23T17:01:44.003Z,7.80
2019-02-23T17:04:13.312Z,7.72
2019-02-23T17:06:42.780Z,7.43
2019-02-23T17:09:12.106Z,9.33
2019-02-23T17:11:41.406Z,8.53
2019-02-23T17:14:10.774Z,7.67
2019-02-23T17:16:44.033Z,7.70
2019-02-23T17:19:13.347Z,7.87
2019-02-23T17:21:42.663Z,9.13
2019-02-23T17:24:11.970Z,6.67
2019-02-23T17:26:41.659Z,6.70
2019-02-23T17:29:11.047Z,6.83
2019-02-23T17:31:40.344Z,6.87
2019-02-23T17:34:10.007Z,11.28
2019-02-23T17:36:39.955Z,6.70
2019-02-23T17:39:10.434Z,8.83
2019-02-23T17:41:40.160Z,12.50
2019-02-23T17:44:09.891Z,13.03
2019-02-23T17:46:40.161Z,12.63
2019-02-23T17:49:09.729Z,13.10
2019-02-23T17:51:39.831Z,9.03
2019-02-23T17:54:10.830Z,9.27
2019-02-23T17:56:40.520Z,10.90
2019-02-23T17:59:13.008Z,7.20
2019-02-23T18:01:44.844Z,8.33
2019-02-23T18:04:15.392Z,9.60
2019-02-23T18:06:44.713Z,9.63
2019-02-23T18:09:19.341Z,11.60
2019-02-23T18:11:50.485Z,16.63
2019-02-23T18:14:19.800Z,26.23
2019-02-23T18:16:55.835Z,9.57
2019-02-23T18:19:25.150Z,12.60
2019-02-23T18:21:54.526Z,21.17
2019-02-23T18:24:23.867Z,13.77
2019-02-23T18:26:53.214Z,9.53
2019-02-23T18:29:23.622Z,6.90
2019-02-23T18:31:52.939Z,11.23
2019-02-23T18:34:22.382Z,13.63
2019-02-23T18:36:51.881Z,29.87
2019-02-23T18:39:22.254Z,10.40
2019-02-23T18:41:51.573Z,11.37
2019-02-23T18:44:20.874Z,7.37
2019-02-23T18:46:50.212Z,9.10
2019-02-23T18:49:19.497Z,9.90
2019-02-23T18:51:48.827Z,10.93
2019-02-23T18:54:18.142Z,7.40
2019-02-23T18:56:47.590Z,7.37
2019-02-23T18:59:16.986Z,7.90
2019-02-23T19:01:46.304Z,10.50
2019-02-23T19:04:15.782Z,8.77
2019-02-23T19:06:46.092Z,7.97
2019-02-23T19:09:15.410Z,8.73
2019-02-23T19:11:44.721Z,9.93
2019-02-23T19:14:14.073Z,10.40
2019-02-23T19:16:43.463Z,10.50
2019-02-23T19:19:12.758Z,7.80
2019-02-23T19:21:43.186Z,6.13
2019-02-23T19:24:12.470Z,6.07
2019-02-23T19:26:41.850Z,7.07
2019-02-23T19:29:11.149Z,5.47
2019-02-23T19:31:40.630Z,6.67
2019-02-23T19:34:09.968Z,9.87
2019-02-23T19:36:39.310Z,9.83
2019-02-23T19:39:09.567Z,8.20
2019-02-23T19:41:39.944Z,8.27
2019-02-23T19:44:09.222Z,5.50
2019-02-23T19:46:41.530Z,8.03
2019-02-23T19:49:11.042Z,8.50
2019-02-23T19:51:41.425Z,18.80
2019-02-23T19:54:10.885Z,8.53
2019-02-23T19:56:46.588Z,7.77
2019-02-23T19:59:11.255Z,7.47
2019-02-23T20:01:40.598Z,7.47
2019-02-23T20:04:09.968Z,5.70
2019-02-23T20:06:39.334Z,6.00
2019-02-23T20:09:08.970Z,5.60
2019-02-23T20:11:39.891Z,6.37
2019-02-23T20:14:09.207Z,8.13
2019-02-23T20:16:38.507Z,5.27
2019-02-23T20:19:07.823Z,7.10
2019-02-23T20:21:37.124Z,7.80
2019-02-23T20:24:06.435Z,5.40
2019-02-23T20:26:36.682Z,4.00
2019-02-23T20:29:06.055Z,5.63
2019-02-23T20:31:35.354Z,6.00
2019-02-23T20:34:04.783Z,5.97
2019-02-23T20:36:34.069Z,11.30
2019-02-23T20:39:05.198Z,13.07
2019-02-23T20:41:36.121Z,9.50
2019-02-23T20:44:05.428Z,8.03
2019-02-23T20:46:34.755Z,6.50
2019-02-23T20:49:04.118Z,8.47
2019-02-23T20:51:33.419Z,5.27
2019-02-23T20:54:02.742Z,6.67
2019-02-23T20:56:32.128Z,5.07
2019-02-23T20:59:01.426Z,6.33
2019-02-23T21:01:30.835Z,6.73
2019-02-23T21:04:00.351Z,12.43
2019-02-23T21:06:30.306Z,4.47
2019-02-23T21:08:59.874Z,5.57
2019-02-23T21:11:29.347Z,4.40
2019-02-23T21:13:58.639Z,6.63
2019-02-23T21:16:28.013Z,4.47
2019-02-23T21:18:57.371Z,6.43
2019-02-23T21:21:26.689Z,6.00
2019-02-23T21:23:55.986Z,7.37
2019-02-23T21:26:25.323Z,8.23
2019-02-23T21:28:54.641Z,12.50
2019-02-23T21:31:25.311Z,13.80
2019-02-23T21:33:54.622Z,11.20
2019-02-23T21:36:23.983Z,7.53
2019-02-23T21:38:54.645Z,6.43
2019-02-23T21:41:24.031Z,8.83
2019-02-23T21:43:53.330Z,17.77
2019-02-23T21:46:22.701Z,20.07
2019-02-23T21:48:52.963Z,20.37
2019-02-23T21:51:22.291Z,20.07
2019-02-23T21:53:51.591Z,11.07
2019-02-23T21:56:20.942Z,14.40
2019-02-23T21:58:50.283Z,13.80
2019-02-23T22:01:19.731Z,13.50
2019-02-23T22:03:49.096Z,9.73
2019-02-23T22:06:18.534Z,12.30
2019-02-23T22:08:49.288Z,8.37
2019-02-23T22:11:18.637Z,7.27
2019-02-23T22:13:48.100Z,6.50
2019-02-23T22:16:17.463Z,4.80
2019-02-23T22:18:46.817Z,6.07
2019-02-23T22:21:17.103Z,6.80
2019-02-23T22:23:46.419Z,5.77
2019-02-23T22:26:15.751Z,6.60
2019-02-23T22:28:45.059Z,5.10
2019-02-23T22:31:14.422Z,5.33
2019-02-23T22:33:43.884Z,7.10
2019-02-23T22:36:13.247Z,5.30
2019-02-23T22:38:42.649Z,7.20
2019-02-23T22:41:11.987Z,6.60
2019-02-23T22:43:41.327Z,7.77
2019-02-23T22:46:10.628Z,5.80
2019-02-23T22:48:39.978Z,4.40
2019-02-23T22:51:09.275Z,4.97
2019-02-23T22:53:38.586Z,6.33
2019-02-23T22:56:08.932Z,5.93
2019-02-23T22:58:38.226Z,3.63
2019-02-23T23:01:08.095Z,5.20
2019-02-23T23:03:39.134Z,5.90
2019-02-23T23:06:08.445Z,5.53
2019-02-23T23:08:37.759Z,6.63
2019-02-23T23:11:07.048Z,9.53
2019-02-23T23:13:36.520Z,6.23
2019-02-23T23:16:06.892Z,7.93
2019-02-23T23:18:36.218Z,9.17
2019-02-23T23:21:05.524Z,4.93
2019-02-23T23:23:35.939Z,5.87
2019-02-23T23:26:05.266Z,5.03
2019-02-23T23:28:34.576Z,6.47
2019-02-23T23:31:03.922Z,5.70
2019-02-23T23:33:33.298Z,7.47
2019-02-23T23:36:02.628Z,7.93
2019-02-23T23:38:32.019Z,7.37
2019-02-23T23:41:01.360Z,8.70
2019-02-23T23:43:30.797Z,7.57
2019-02-23T23:46:00.118Z,7.77
2019-02-23T23:48:29.427Z,6.67
2019-02-23T23:50:58.728Z,9.30
2019-02-23T23:53:28.042Z,7.30
2019-02-23T23:55:57.325Z,6.73
2019-02-23T23:58:26.770Z,5.27
